Choctaw, Oklahoma
Current Conditions -  °F | °C
As of 1:58 PM on Monday 26 Jan 2015 (Local Time) from KTIK Reporting Station
Clear Clear  
Wind Chill: 71°   Ceiling: Unl
Heat Index: 71°   Visibility: 10mi
Dew Point: 36°   Wind: 8mph
Humidity: 28%   Direction: 320°NW
Pressure: 30.03"   Gusts: NA
Location:  35.49°N, 97.27°W
Report Text: KTIK 261958Z AUTO 32007KT 10SM CLR 22/02 A3003 RMK AO2 SLP175 T02160021
Loading
Personal Weather Stations






























Interactive Weather Map New forecast layout! Learn more

10-Day Weather Forecast

Advertisements
Track Severe Weather on mobile